sensor_id;sensor_type;location;lat;lon;timestamp;P1;durP1;ratioP1;P2;durP2;ratioP2
67839;SDS011;54636;51.684;5.142;2023-04-06T00:01:30;11.98;;;10.15;;
67839;SDS011;54636;51.684;5.142;2023-04-06T00:03:55;14.38;;;10.07;;
67839;SDS011;54636;51.684;5.142;2023-04-06T00:06:21;12.82;;;10.10;;
67839;SDS011;54636;51.684;5.142;2023-04-06T00:08:46;12.60;;;10.80;;
67839;SDS011;54636;51.684;5.142;2023-04-06T00:11:12;16.25;;;10.13;;
67839;SDS011;54636;51.684;5.142;2023-04-06T00:13:37;12.65;;;10.43;;
67839;SDS011;54636;51.684;5.142;2023-04-06T00:16:03;12.27;;;9.52;;
67839;SDS011;54636;51.684;5.142;2023-04-06T00:18:30;13.35;;;9.50;;
67839;SDS011;54636;51.684;5.142;2023-04-06T00:20:56;13.10;;;9.82;;
67839;SDS011;54636;51.684;5.142;2023-04-06T00:23:21;14.80;;;10.80;;
67839;SDS011;54636;51.684;5.142;2023-04-06T00:25:47;10.80;;;9.55;;
67839;SDS011;54636;51.684;5.142;2023-04-06T00:28:12;11.75;;;9.70;;
67839;SDS011;54636;51.684;5.142;2023-04-06T00:30:38;13.75;;;9.88;;
67839;SDS011;54636;51.684;5.142;2023-04-06T00:33:03;15.02;;;10.57;;
67839;SDS011;54636;51.684;5.142;2023-04-06T00:35:28;11.07;;;9.80;;
67839;SDS011;54636;51.684;5.142;2023-04-06T00:50:31;12.98;;;10.13;;
67839;SDS011;54636;51.684;5.142;2023-04-06T00:52:56;14.15;;;10.23;;
67839;SDS011;54636;51.684;5.142;2023-04-06T00:55:22;20.00;;;10.07;;
67839;SDS011;54636;51.684;5.142;2023-04-06T00:57:47;13.93;;;10.70;;
67839;SDS011;54636;51.684;5.142;2023-04-06T01:00:16;11.05;;;9.93;;
67839;SDS011;54636;51.684;5.142;2023-04-06T01:02:41;12.85;;;9.40;;
67839;SDS011;54636;51.684;5.142;2023-04-06T01:05:07;12.07;;;8.80;;
67839;SDS011;54636;51.684;5.142;2023-04-06T01:07:33;13.40;;;9.55;;
67839;SDS011;54636;51.684;5.142;2023-04-06T01:09:58;13.38;;;9.73;;
67839;SDS011;54636;51.684;5.142;2023-04-06T01:12:24;14.32;;;10.35;;
67839;SDS011;54636;51.684;5.142;2023-04-06T01:14:50;12.95;;;10.07;;
67839;SDS011;54636;51.684;5.142;2023-04-06T01:17:15;12.18;;;9.65;;
67839;SDS011;54636;51.684;5.142;2023-04-06T01:19:41;13.50;;;9.57;;
67839;SDS011;54636;51.684;5.142;2023-04-06T01:22:07;15.20;;;9.98;;
67839;SDS011;54636;51.684;5.142;2023-04-06T01:24:32;13.35;;;10.05;;
67839;SDS011;54636;51.684;5.142;2023-04-06T01:26:58;13.63;;;10.45;;
67839;SDS011;54636;51.684;5.142;2023-04-06T01:29:23;16.98;;;10.48;;
67839;SDS011;54636;51.684;5.142;2023-04-06T01:31:49;13.52;;;10.23;;
67839;SDS011;54636;51.684;5.142;2023-04-06T01:34:14;13.45;;;9.43;;
67839;SDS011;54636;51.684;5.142;2023-04-06T01:36:40;11.32;;;9.57;;
67839;SDS011;54636;51.684;5.142;2023-04-06T01:39:05;12.25;;;10.63;;
67839;SDS011;54636;51.684;5.142;2023-04-06T01:41:31;14.00;;;9.45;;
67839;SDS011;54636;51.684;5.142;2023-04-06T01:43:56;15.07;;;10.07;;
67839;SDS011;54636;51.684;5.142;2023-04-06T01:46:22;13.18;;;9.43;;
67839;SDS011;54636;51.684;5.142;2023-04-06T01:48:47;16.20;;;10.05;;
67839;SDS011;54636;51.684;5.142;2023-04-06T01:51:12;12.68;;;9.57;;
67839;SDS011;54636;51.684;5.142;2023-04-06T01:53:38;16.05;;;9.52;;
67839;SDS011;54636;51.684;5.142;2023-04-06T01:56:03;14.02;;;10.57;;
67839;SDS011;54636;51.684;5.142;2023-04-06T01:58:29;13.60;;;9.80;;
67839;SDS011;54636;51.684;5.142;2023-04-06T02:00:54;12.82;;;9.48;;
67839;SDS011;54636;51.684;5.142;2023-04-06T02:03:20;15.07;;;9.23;;
67839;SDS011;54636;51.684;5.142;2023-04-06T02:05:45;12.75;;;9.50;;
67839;SDS011;54636;51.684;5.142;2023-04-06T02:08:11;12.77;;;10.05;;
67839;SDS011;54636;51.684;5.142;2023-04-06T02:10:36;13.60;;;8.85;;
67839;SDS011;54636;51.684;5.142;2023-04-06T02:13:02;14.50;;;8.77;;
67839;SDS011;54636;51.684;5.142;2023-04-06T02:15:27;16.25;;;9.55;;
67839;SDS011;54636;51.684;5.142;2023-04-06T02:17:53;13.68;;;10.23;;
67839;SDS011;54636;51.684;5.142;2023-04-06T02:20:18;11.90;;;9.57;;
67839;SDS011;54636;51.684;5.142;2023-04-06T02:22:44;13.85;;;10.35;;
67839;SDS011;54636;51.684;5.142;2023-04-06T02:25:10;16.38;;;10.48;;
67839;SDS011;54636;51.684;5.142;2023-04-06T02:27:35;10.80;;;9.18;;
67839;SDS011;54636;51.684;5.142;2023-04-06T02:30:01;14.13;;;9.77;;
67839;SDS011;54636;51.684;5.142;2023-04-06T02:32:28;20.98;;;10.55;;
67839;SDS011;54636;51.684;5.142;2023-04-06T02:34:53;17.85;;;10.73;;
67839;SDS011;54636;51.684;5.142;2023-04-06T02:37:19;11.95;;;10.00;;
67839;SDS011;54636;51.684;5.142;2023-04-06T02:39:45;15.13;;;11.00;;
67839;SDS011;54636;51.684;5.142;2023-04-06T02:42:10;14.55;;;10.65;;
67839;SDS011;54636;51.684;5.142;2023-04-06T02:44:35;14.32;;;10.48;;
67839;SDS011;54636;51.684;5.142;2023-04-06T02:47:01;15.93;;;10.63;;
67839;SDS011;54636;51.684;5.142;2023-04-06T02:49:26;16.05;;;10.75;;
67839;SDS011;54636;51.684;5.142;2023-04-06T02:51:52;15.05;;;9.75;;
67839;SDS011;54636;51.684;5.142;2023-04-06T02:54:17;12.80;;;10.45;;
67839;SDS011;54636;51.684;5.142;2023-04-06T02:56:43;17.27;;;10.52;;
67839;SDS011;54636;51.684;5.142;2023-04-06T02:59:08;13.07;;;11.05;;
67839;SDS011;54636;51.684;5.142;2023-04-06T03:01:34;13.77;;;10.48;;
67839;SDS011;54636;51.684;5.142;2023-04-06T03:03:59;15.82;;;11.73;;
67839;SDS011;54636;51.684;5.142;2023-04-06T03:06:25;16.52;;;11.05;;
67839;SDS011;54636;51.684;5.142;2023-04-06T03:08:51;16.95;;;11.48;;
67839;SDS011;54636;51.684;5.142;2023-04-06T03:11:16;15.07;;;11.95;;
67839;SDS011;54636;51.684;5.142;2023-04-06T03:13:42;13.90;;;11.30;;
67839;SDS011;54636;51.684;5.142;2023-04-06T03:16:07;17.48;;;11.57;;
67839;SDS011;54636;51.684;5.142;2023-04-06T03:18:33;16.98;;;12.13;;
67839;SDS011;54636;51.684;5.142;2023-04-06T03:20:58;16.65;;;11.85;;
67839;SDS011;54636;51.684;5.142;2023-04-06T03:23:25;18.20;;;11.45;;
67839;SDS011;54636;51.684;5.142;2023-04-06T03:25:50;15.95;;;11.63;;
67839;SDS011;54636;51.684;5.142;2023-04-06T03:28:16;15.88;;;11.05;;
67839;SDS011;54636;51.684;5.142;2023-04-06T03:30:41;17.00;;;11.40;;
67839;SDS011;54636;51.684;5.142;2023-04-06T03:33:07;19.25;;;11.48;;
67839;SDS011;54636;51.684;5.142;2023-04-06T03:35:32;14.95;;;11.48;;
67839;SDS011;54636;51.684;5.142;2023-04-06T03:37:58;23.42;;;12.38;;
67839;SDS011;54636;51.684;5.142;2023-04-06T03:40:23;18.55;;;11.45;;
67839;SDS011;54636;51.684;5.142;2023-04-06T03:42:49;17.23;;;11.38;;
67839;SDS011;54636;51.684;5.142;2023-04-06T03:45:15;17.05;;;11.68;;
67839;SDS011;54636;51.684;5.142;2023-04-06T03:47:41;17.58;;;11.88;;
67839;SDS011;54636;51.684;5.142;2023-04-06T03:50:06;17.48;;;12.32;;
67839;SDS011;54636;51.684;5.142;2023-04-06T03:52:32;17.30;;;11.98;;
67839;SDS011;54636;51.684;5.142;2023-04-06T03:54:57;19.83;;;12.65;;
67839;SDS011;54636;51.684;5.142;2023-04-06T03:57:23;16.50;;;12.23;;
67839;SDS011;54636;51.684;5.142;2023-04-06T03:59:48;16.10;;;12.27;;
67839;SDS011;54636;51.684;5.142;2023-04-06T04:02:14;16.67;;;12.63;;
67839;SDS011;54636;51.684;5.142;2023-04-06T04:04:39;16.88;;;12.48;;
67839;SDS011;54636;51.684;5.142;2023-04-06T04:07:05;16.67;;;12.10;;
67839;SDS011;54636;51.684;5.142;2023-04-06T04:09:30;14.68;;;12.20;;
67839;SDS011;54636;51.684;5.142;2023-04-06T04:11:56;19.13;;;12.73;;
67839;SDS011;54636;51.684;5.142;2023-04-06T04:14:21;16.17;;;12.55;;
67839;SDS011;54636;51.684;5.142;2023-04-06T04:16:46;16.92;;;11.98;;
67839;SDS011;54636;51.684;5.142;2023-04-06T04:19:12;14.60;;;11.43;;
67839;SDS011;54636;51.684;5.142;2023-04-06T04:21:44;15.25;;;11.73;;
67839;SDS011;54636;51.684;5.142;2023-04-06T04:24:11;16.38;;;12.30;;
67839;SDS011;54636;51.684;5.142;2023-04-06T04:26:37;22.58;;;12.27;;
67839;SDS011;54636;51.684;5.142;2023-04-06T04:29:04;19.55;;;12.00;;
67839;SDS011;54636;51.684;5.142;2023-04-06T04:31:30;15.63;;;12.40;;
67839;SDS011;54636;51.684;5.142;2023-04-06T04:33:55;17.25;;;12.15;;
67839;SDS011;54636;51.684;5.142;2023-04-06T04:36:21;16.42;;;13.27;;
67839;SDS011;54636;51.684;5.142;2023-04-06T04:38:46;19.55;;;13.88;;
67839;SDS011;54636;51.684;5.142;2023-04-06T04:41:12;17.95;;;13.07;;
67839;SDS011;54636;51.684;5.142;2023-04-06T04:43:37;15.63;;;12.38;;
67839;SDS011;54636;51.684;5.142;2023-04-06T04:46:03;18.10;;;12.85;;
67839;SDS011;54636;51.684;5.142;2023-04-06T04:48:29;21.50;;;12.38;;
67839;SDS011;54636;51.684;5.142;2023-04-06T04:50:55;15.57;;;13.18;;
67839;SDS011;54636;51.684;5.142;2023-04-06T04:53:20;16.10;;;12.60;;
67839;SDS011;54636;51.684;5.142;2023-04-06T04:55:46;19.92;;;13.32;;
67839;SDS011;54636;51.684;5.142;2023-04-06T04:58:11;17.55;;;13.00;;
67839;SDS011;54636;51.684;5.142;2023-04-06T05:00:41;24.27;;;12.02;;
67839;SDS011;54636;51.684;5.142;2023-04-06T05:03:07;18.83;;;13.52;;
67839;SDS011;54636;51.684;5.142;2023-04-06T05:05:33;17.85;;;12.73;;
67839;SDS011;54636;51.684;5.142;2023-04-06T05:07:58;23.95;;;12.60;;
67839;SDS011;54636;51.684;5.142;2023-04-06T05:10:24;19.77;;;12.23;;
67839;SDS011;54636;51.684;5.142;2023-04-06T05:12:49;19.67;;;12.60;;
67839;SDS011;54636;51.684;5.142;2023-04-06T05:15:15;13.93;;;11.82;;
67839;SDS011;54636;51.684;5.142;2023-04-06T05:17:40;20.27;;;12.07;;
67839;SDS011;54636;51.684;5.142;2023-04-06T05:20:06;23.98;;;12.43;;
67839;SDS011;54636;51.684;5.142;2023-04-06T05:22:31;21.23;;;13.02;;
67839;SDS011;54636;51.684;5.142;2023-04-06T05:24:57;22.65;;;13.40;;
67839;SDS011;54636;51.684;5.142;2023-04-06T05:27:22;20.42;;;13.65;;
67839;SDS011;54636;51.684;5.142;2023-04-06T05:29:48;19.20;;;13.75;;
67839;SDS011;54636;51.684;5.142;2023-04-06T05:32:17;18.02;;;13.68;;
67839;SDS011;54636;51.684;5.142;2023-04-06T05:34:47;17.10;;;13.80;;
67839;SDS011;54636;51.684;5.142;2023-04-06T05:37:13;26.30;;;14.63;;
67839;SDS011;54636;51.684;5.142;2023-04-06T05:39:39;19.77;;;13.30;;
67839;SDS011;54636;51.684;5.142;2023-04-06T05:42:04;16.83;;;12.95;;
67839;SDS011;54636;51.684;5.142;2023-04-06T05:44:31;17.63;;;12.73;;
67839;SDS011;54636;51.684;5.142;2023-04-06T05:46:57;17.27;;;12.93;;
67839;SDS011;54636;51.684;5.142;2023-04-06T05:49:22;20.13;;;13.43;;
67839;SDS011;54636;51.684;5.142;2023-04-06T05:51:48;22.05;;;14.45;;
67839;SDS011;54636;51.684;5.142;2023-04-06T05:54:13;19.42;;;13.63;;
67839;SDS011;54636;51.684;5.142;2023-04-06T05:56:39;17.35;;;12.95;;
67839;SDS011;54636;51.684;5.142;2023-04-06T05:59:04;21.00;;;13.95;;
67839;SDS011;54636;51.684;5.142;2023-04-06T06:01:30;17.80;;;13.77;;
67839;SDS011;54636;51.684;5.142;2023-04-06T06:03:55;18.17;;;13.10;;
67839;SDS011;54636;51.684;5.142;2023-04-06T06:06:21;22.08;;;14.52;;
67839;SDS011;54636;51.684;5.142;2023-04-06T06:08:46;23.63;;;13.55;;
67839;SDS011;54636;51.684;5.142;2023-04-06T06:11:12;18.27;;;13.57;;
67839;SDS011;54636;51.684;5.142;2023-04-06T06:13:37;25.83;;;14.02;;
67839;SDS011;54636;51.684;5.142;2023-04-06T06:16:03;24.83;;;14.80;;
67839;SDS011;54636;51.684;5.142;2023-04-06T06:18:30;20.33;;;13.07;;
67839;SDS011;54636;51.684;5.142;2023-04-06T06:20:55;19.25;;;13.82;;
67839;SDS011;54636;51.684;5.142;2023-04-06T06:23:21;16.83;;;12.50;;
67839;SDS011;54636;51.684;5.142;2023-04-06T06:25:46;20.08;;;14.48;;
67839;SDS011;54636;51.684;5.142;2023-04-06T06:28:11;17.55;;;12.90;;
67839;SDS011;54636;51.684;5.142;2023-04-06T06:30:37;18.98;;;14.25;;
67839;SDS011;54636;51.684;5.142;2023-04-06T06:33:02;22.10;;;13.50;;
67839;SDS011;54636;51.684;5.142;2023-04-06T06:35:28;19.48;;;13.82;;
67839;SDS011;54636;51.684;5.142;2023-04-06T06:37:53;18.23;;;13.25;;
67839;SDS011;54636;51.684;5.142;2023-04-06T06:40:19;24.05;;;13.80;;
67839;SDS011;54636;51.684;5.142;2023-04-06T06:42:47;21.95;;;15.02;;
67839;SDS011;54636;51.684;5.142;2023-04-06T06:45:12;20.40;;;14.98;;
67839;SDS011;54636;51.684;5.142;2023-04-06T06:47:37;20.08;;;14.65;;
67839;SDS011;54636;51.684;5.142;2023-04-06T06:50:03;16.90;;;13.20;;
67839;SDS011;54636;51.684;5.142;2023-04-06T06:52:29;19.25;;;14.95;;
67839;SDS011;54636;51.684;5.142;2023-04-06T06:54:54;27.17;;;16.23;;
67839;SDS011;54636;51.684;5.142;2023-04-06T06:57:21;21.38;;;14.57;;
67839;SDS011;54636;51.684;5.142;2023-04-06T06:59:46;29.42;;;16.15;;
67839;SDS011;54636;51.684;5.142;2023-04-06T07:02:12;22.27;;;14.50;;
67839;SDS011;54636;51.684;5.142;2023-04-06T07:04:37;26.33;;;15.88;;
67839;SDS011;54636;51.684;5.142;2023-04-06T07:07:03;23.83;;;16.27;;
67839;SDS011;54636;51.684;5.142;2023-04-06T07:09:28;22.42;;;15.10;;
67839;SDS011;54636;51.684;5.142;2023-04-06T07:11:54;18.25;;;12.10;;
67839;SDS011;54636;51.684;5.142;2023-04-06T07:14:21;21.10;;;15.73;;
67839;SDS011;54636;51.684;5.142;2023-04-06T07:16:46;29.95;;;15.27;;
67839;SDS011;54636;51.684;5.142;2023-04-06T07:19:13;23.55;;;16.25;;
67839;SDS011;54636;51.684;5.142;2023-04-06T07:21:39;19.67;;;15.73;;
67839;SDS011;54636;51.684;5.142;2023-04-06T07:24:04;26.55;;;15.88;;
67839;SDS011;54636;51.684;5.142;2023-04-06T07:26:30;19.88;;;16.05;;
67839;SDS011;54636;51.684;5.142;2023-04-06T07:28:55;22.67;;;16.05;;
67839;SDS011;54636;51.684;5.142;2023-04-06T07:31:21;23.98;;;15.85;;
67839;SDS011;54636;51.684;5.142;2023-04-06T07:33:46;23.15;;;15.75;;
67839;SDS011;54636;51.684;5.142;2023-04-06T07:36:12;25.63;;;15.57;;
67839;SDS011;54636;51.684;5.142;2023-04-06T07:38:37;25.20;;;16.05;;
67839;SDS011;54636;51.684;5.142;2023-04-06T07:41:02;25.90;;;15.85;;
67839;SDS011;54636;51.684;5.142;2023-04-06T07:43:29;18.17;;;14.02;;
67839;SDS011;54636;51.684;5.142;2023-04-06T07:45:55;22.98;;;14.95;;
67839;SDS011;54636;51.684;5.142;2023-04-06T07:48:22;20.48;;;13.73;;
67839;SDS011;54636;51.684;5.142;2023-04-06T07:50:48;17.33;;;12.40;;
67839;SDS011;54636;51.684;5.142;2023-04-06T07:53:13;18.27;;;13.38;;
67839;SDS011;54636;51.684;5.142;2023-04-06T07:55:39;18.90;;;13.57;;
67839;SDS011;54636;51.684;5.142;2023-04-06T07:58:04;14.35;;;9.52;;
67839;SDS011;54636;51.684;5.142;2023-04-06T08:00:30;18.55;;;13.23;;
67839;SDS011;54636;51.684;5.142;2023-04-06T08:02:55;22.95;;;13.85;;
67839;SDS011;54636;51.684;5.142;2023-04-06T08:05:21;19.55;;;13.65;;
67839;SDS011;54636;51.684;5.142;2023-04-06T08:07:46;16.63;;;13.38;;
67839;SDS011;54636;51.684;5.142;2023-04-06T08:10:12;27.05;;;14.20;;
67839;SDS011;54636;51.684;5.142;2023-04-06T08:12:37;27.80;;;14.10;;
67839;SDS011;54636;51.684;5.142;2023-04-06T08:15:03;18.25;;;13.35;;
67839;SDS011;54636;51.684;5.142;2023-04-06T08:17:29;27.20;;;10.77;;
67839;SDS011;54636;51.684;5.142;2023-04-06T08:19:56;17.27;;;13.07;;
67839;SDS011;54636;51.684;5.142;2023-04-06T08:22:21;17.50;;;13.10;;
67839;SDS011;54636;51.684;5.142;2023-04-06T08:24:47;15.93;;;13.02;;
67839;SDS011;54636;51.684;5.142;2023-04-06T08:27:12;22.88;;;9.80;;
67839;SDS011;54636;51.684;5.142;2023-04-06T08:29:39;17.08;;;11.15;;
67839;SDS011;54636;51.684;5.142;2023-04-06T08:32:05;26.17;;;13.25;;
67839;SDS011;54636;51.684;5.142;2023-04-06T08:34:32;19.63;;;12.45;;
67839;SDS011;54636;51.684;5.142;2023-04-06T08:36:58;15.40;;;13.07;;
67839;SDS011;54636;51.684;5.142;2023-04-06T08:39:23;23.60;;;13.85;;
67839;SDS011;54636;51.684;5.142;2023-04-06T08:41:51;27.45;;;14.48;;
67839;SDS011;54636;51.684;5.142;2023-04-06T08:44:17;19.50;;;14.55;;
67839;SDS011;54636;51.684;5.142;2023-04-06T08:46:43;18.02;;;12.18;;
67839;SDS011;54636;51.684;5.142;2023-04-06T08:49:08;22.45;;;14.48;;
67839;SDS011;54636;51.684;5.142;2023-04-06T08:51:34;22.58;;;14.73;;
67839;SDS011;54636;51.684;5.142;2023-04-06T08:54:02;18.38;;;14.30;;
67839;SDS011;54636;51.684;5.142;2023-04-06T08:56:28;21.13;;;14.85;;
67839;SDS011;54636;51.684;5.142;2023-04-06T08:58:54;15.85;;;13.48;;
67839;SDS011;54636;51.684;5.142;2023-04-06T09:01:20;20.90;;;14.30;;
67839;SDS011;54636;51.684;5.142;2023-04-06T09:03:48;19.75;;;12.35;;
67839;SDS011;54636;51.684;5.142;2023-04-06T09:06:15;18.58;;;14.30;;
67839;SDS011;54636;51.684;5.142;2023-04-06T09:08:41;19.33;;;12.70;;
67839;SDS011;54636;51.684;5.142;2023-04-06T09:11:07;19.38;;;13.05;;
67839;SDS011;54636;51.684;5.142;2023-04-06T09:13:52;28.92;;;14.38;;
67839;SDS011;54636;51.684;5.142;2023-04-06T09:16:22;20.23;;;14.90;;
67839;SDS011;54636;51.684;5.142;2023-04-06T09:18:48;17.20;;;14.30;;
67839;SDS011;54636;51.684;5.142;2023-04-06T09:21:16;12.63;;;9.52;;
67839;SDS011;54636;51.684;5.142;2023-04-06T09:23:43;19.33;;;13.93;;
67839;SDS011;54636;51.684;5.142;2023-04-06T09:31:25;15.60;;;12.18;;
67839;SDS011;54636;51.684;5.142;2023-04-06T09:33:52;16.55;;;10.82;;
67839;SDS011;54636;51.684;5.142;2023-04-06T09:36:18;19.88;;;13.32;;
67839;SDS011;54636;51.684;5.142;2023-04-06T09:38:54;14.35;;;11.20;;
67839;SDS011;54636;51.684;5.142;2023-04-06T09:41:24;13.27;;;11.55;;
67839;SDS011;54636;51.684;5.142;2023-04-06T09:43:51;11.07;;;9.10;;
67839;SDS011;54636;51.684;5.142;2023-04-06T09:46:18;12.20;;;8.07;;
67839;SDS011;54636;51.684;5.142;2023-04-06T09:48:46;15.27;;;10.32;;
67839;SDS011;54636;51.684;5.142;2023-04-06T09:51:13;8.15;;;7.38;;
67839;SDS011;54636;51.684;5.142;2023-04-06T09:53:41;14.23;;;10.40;;
67839;SDS011;54636;51.684;5.142;2023-04-06T09:56:11;14.17;;;10.83;;
67839;SDS011;54636;51.684;5.142;2023-04-06T09:58:41;14.55;;;9.13;;
67839;SDS011;54636;51.684;5.142;2023-04-06T10:01:12;10.43;;;9.40;;
67839;SDS011;54636;51.684;5.142;2023-04-06T10:03:45;15.65;;;9.75;;
67839;SDS011;54636;51.684;5.142;2023-04-06T10:06:21;14.90;;;11.00;;
67839;SDS011;54636;51.684;5.142;2023-04-06T10:08:51;11.85;;;10.00;;
67839;SDS011;54636;51.684;5.142;2023-04-06T10:11:19;13.65;;;10.07;;
67839;SDS011;54636;51.684;5.142;2023-04-06T10:13:46;10.30;;;8.20;;
67839;SDS011;54636;51.684;5.142;2023-04-06T10:16:14;13.30;;;8.60;;
67839;SDS011;54636;51.684;5.142;2023-04-06T10:18:41;13.60;;;8.38;;
67839;SDS011;54636;51.684;5.142;2023-04-06T10:21:11;7.53;;;6.85;;
67839;SDS011;54636;51.684;5.142;2023-04-06T10:23:45;9.50;;;6.97;;
67839;SDS011;54636;51.684;5.142;2023-04-06T10:26:15;9.57;;;6.78;;
67839;SDS011;54636;51.684;5.142;2023-04-06T10:28:42;8.10;;;5.32;;
67839;SDS011;54636;51.684;5.142;2023-04-06T10:31:08;7.50;;;6.72;;
67839;SDS011;54636;51.684;5.142;2023-04-06T10:33:34;6.05;;;5.45;;
67839;SDS011;54636;51.684;5.142;2023-04-06T10:38:40;8.70;;;6.65;;
67839;SDS011;54636;51.684;5.142;2023-04-06T10:41:06;8.25;;;5.72;;
67839;SDS011;54636;51.684;5.142;2023-04-06T10:43:34;7.05;;;6.35;;
67839;SDS011;54636;51.684;5.142;2023-04-06T10:46:01;8.32;;;7.53;;
67839;SDS011;54636;51.684;5.142;2023-04-06T10:48:40;7.85;;;7.05;;
67839;SDS011;54636;51.684;5.142;2023-04-06T10:51:08;8.27;;;7.47;;
67839;SDS011;54636;51.684;5.142;2023-04-06T10:53:36;8.30;;;7.10;;
67839;SDS011;54636;51.684;5.142;2023-04-06T10:56:01;7.75;;;6.25;;
67839;SDS011;54636;51.684;5.142;2023-04-06T10:58:28;10.10;;;7.15;;
67839;SDS011;54636;51.684;5.142;2023-04-06T11:00:53;8.55;;;7.65;;
67839;SDS011;54636;51.684;5.142;2023-04-06T11:03:20;10.73;;;7.30;;
67839;SDS011;54636;51.684;5.142;2023-04-06T11:05:50;11.02;;;5.63;;
67839;SDS011;54636;51.684;5.142;2023-04-06T11:08:23;8.73;;;7.82;;
67839;SDS011;54636;51.684;5.142;2023-04-06T11:10:48;11.23;;;7.18;;
67839;SDS011;54636;51.684;5.142;2023-04-06T11:13:14;7.18;;;6.50;;
67839;SDS011;54636;51.684;5.142;2023-04-06T11:15:40;8.68;;;4.75;;
67839;SDS011;54636;51.684;5.142;2023-04-06T11:18:05;10.32;;;7.30;;
67839;SDS011;54636;51.684;5.142;2023-04-06T11:20:31;7.03;;;6.40;;
67839;SDS011;54636;51.684;5.142;2023-04-06T11:22:56;9.90;;;7.50;;
67839;SDS011;54636;51.684;5.142;2023-04-06T11:25:24;6.47;;;5.93;;
67839;SDS011;54636;51.684;5.142;2023-04-06T11:27:51;5.53;;;5.00;;
67839;SDS011;54636;51.684;5.142;2023-04-06T11:30:16;4.80;;;4.25;;
67839;SDS011;54636;51.684;5.142;2023-04-06T11:32:43;9.75;;;7.32;;
67839;SDS011;54636;51.684;5.142;2023-04-06T11:35:10;10.38;;;6.88;;
67839;SDS011;54636;51.684;5.142;2023-04-06T11:37:50;10.68;;;7.30;;
67839;SDS011;54636;51.684;5.142;2023-04-06T11:40:22;8.57;;;7.18;;
67839;SDS011;54636;51.684;5.142;2023-04-06T11:42:53;6.38;;;5.78;;
67839;SDS011;54636;51.684;5.142;2023-04-06T11:45:19;8.00;;;7.25;;
67839;SDS011;54636;51.684;5.142;2023-04-06T11:47:44;11.02;;;8.20;;
67839;SDS011;54636;51.684;5.142;2023-04-06T11:50:10;9.38;;;7.65;;
67839;SDS011;54636;51.684;5.142;2023-04-06T11:52:38;8.25;;;7.45;;
67839;SDS011;54636;51.684;5.142;2023-04-06T11:55:14;6.97;;;6.32;;
67839;SDS011;54636;51.684;5.142;2023-04-06T11:57:41;10.52;;;7.45;;
67839;SDS011;54636;51.684;5.142;2023-04-06T12:00:07;10.90;;;7.85;;
67839;SDS011;54636;51.684;5.142;2023-04-06T12:02:37;7.95;;;7.18;;
67839;SDS011;54636;51.684;5.142;2023-04-06T12:05:04;9.25;;;8.05;;
67839;SDS011;54636;51.684;5.142;2023-04-06T12:07:30;8.88;;;7.93;;
67839;SDS011;54636;51.684;5.142;2023-04-06T12:09:56;8.38;;;7.63;;
67839;SDS011;54636;51.684;5.142;2023-04-06T12:12:23;11.05;;;8.05;;
67839;SDS011;54636;51.684;5.142;2023-04-06T12:14:48;4.68;;;4.35;;
67839;SDS011;54636;51.684;5.142;2023-04-06T12:17:14;8.77;;;7.82;;
67839;SDS011;54636;51.684;5.142;2023-04-06T12:19:39;10.80;;;8.05;;
67839;SDS011;54636;51.684;5.142;2023-04-06T12:22:05;9.07;;;8.18;;
67839;SDS011;54636;51.684;5.142;2023-04-06T12:24:31;9.15;;;8.20;;
67839;SDS011;54636;51.684;5.142;2023-04-06T12:26:56;9.40;;;8.10;;
67839;SDS011;54636;51.684;5.142;2023-04-06T12:29:23;10.38;;;9.35;;
67839;SDS011;54636;51.684;5.142;2023-04-06T12:31:49;9.70;;;8.70;;
67839;SDS011;54636;51.684;5.142;2023-04-06T12:34:16;10.13;;;8.15;;
67839;SDS011;54636;51.684;5.142;2023-04-06T12:36:41;10.23;;;9.23;;
67839;SDS011;54636;51.684;5.142;2023-04-06T12:39:07;8.27;;;7.47;;
67839;SDS011;54636;51.684;5.142;2023-04-06T12:41:32;12.00;;;9.00;;
67839;SDS011;54636;51.684;5.142;2023-04-06T12:43:58;11.27;;;8.80;;
67839;SDS011;54636;51.684;5.142;2023-04-06T12:46:24;10.10;;;8.52;;
67839;SDS011;54636;51.684;5.142;2023-04-06T12:48:50;12.23;;;8.88;;
67839;SDS011;54636;51.684;5.142;2023-04-06T12:51:18;9.20;;;8.23;;
67839;SDS011;54636;51.684;5.142;2023-04-06T12:53:44;8.95;;;7.43;;
67839;SDS011;54636;51.684;5.142;2023-04-06T12:56:11;11.65;;;9.27;;
67839;SDS011;54636;51.684;5.142;2023-04-06T12:58:41;11.90;;;10.07;;
67839;SDS011;54636;51.684;5.142;2023-04-06T13:01:07;11.32;;;8.80;;
67839;SDS011;54636;51.684;5.142;2023-04-06T13:03:33;7.38;;;6.65;;
67839;SDS011;54636;51.684;5.142;2023-04-06T13:05:59;10.60;;;9.50;;
67839;SDS011;54636;51.684;5.142;2023-04-06T13:08:25;10.05;;;8.77;;
67839;SDS011;54636;51.684;5.142;2023-04-06T13:10:52;15.45;;;9.60;;
67839;SDS011;54636;51.684;5.142;2023-04-06T13:13:22;10.30;;;8.68;;
67839;SDS011;54636;51.684;5.142;2023-04-06T13:15:49;8.73;;;7.55;;
67839;SDS011;54636;51.684;5.142;2023-04-06T13:18:15;9.60;;;7.43;;
67839;SDS011;54636;51.684;5.142;2023-04-06T13:20:41;10.43;;;7.28;;
67839;SDS011;54636;51.684;5.142;2023-04-06T13:23:07;12.73;;;9.77;;
67839;SDS011;54636;51.684;5.142;2023-04-06T13:25:32;11.18;;;9.52;;
67839;SDS011;54636;51.684;5.142;2023-04-06T13:27:58;12.80;;;9.95;;
67839;SDS011;54636;51.684;5.142;2023-04-06T13:30:24;10.95;;;9.93;;
67839;SDS011;54636;51.684;5.142;2023-04-06T13:32:49;9.13;;;8.05;;
67839;SDS011;54636;51.684;5.142;2023-04-06T13:35:15;12.85;;;10.43;;
67839;SDS011;54636;51.684;5.142;2023-04-06T13:37:41;11.93;;;8.90;;
67839;SDS011;54636;51.684;5.142;2023-04-06T13:40:07;10.90;;;9.73;;
67839;SDS011;54636;51.684;5.142;2023-04-06T13:42:33;10.32;;;9.32;;
67839;SDS011;54636;51.684;5.142;2023-04-06T13:45:00;9.23;;;8.13;;
67839;SDS011;54636;51.684;5.142;2023-04-06T13:47:26;7.10;;;5.97;;
67839;SDS011;54636;51.684;5.142;2023-04-06T13:49:52;11.13;;;10.00;;
67839;SDS011;54636;51.684;5.142;2023-04-06T13:52:19;6.50;;;5.90;;
67839;SDS011;54636;51.684;5.142;2023-04-06T13:54:44;9.57;;;8.15;;
67839;SDS011;54636;51.684;5.142;2023-04-06T13:57:10;9.18;;;8.35;;
67839;SDS011;54636;51.684;5.142;2023-04-06T13:59:37;9.10;;;7.40;;
67839;SDS011;54636;51.684;5.142;2023-04-06T14:02:03;8.82;;;7.95;;
67839;SDS011;54636;51.684;5.142;2023-04-06T14:04:31;10.65;;;8.32;;
67839;SDS011;54636;51.684;5.142;2023-04-06T14:06:57;8.50;;;7.63;;
67839;SDS011;54636;51.684;5.142;2023-04-06T14:09:23;11.95;;;8.55;;
67839;SDS011;54636;51.684;5.142;2023-04-06T14:11:48;7.30;;;6.25;;
67839;SDS011;54636;51.684;5.142;2023-04-06T14:14:15;8.38;;;7.13;;
67839;SDS011;54636;51.684;5.142;2023-04-06T14:16:41;7.57;;;6.65;;
67839;SDS011;54636;51.684;5.142;2023-04-06T14:19:09;8.00;;;6.78;;
67839;SDS011;54636;51.684;5.142;2023-04-06T14:21:37;7.05;;;6.10;;
67839;SDS011;54636;51.684;5.142;2023-04-06T14:24:04;6.40;;;5.97;;
67839;SDS011;54636;51.684;5.142;2023-04-06T14:26:30;8.48;;;6.88;;
67839;SDS011;54636;51.684;5.142;2023-04-06T14:28:57;7.32;;;6.70;;
67839;SDS011;54636;51.684;5.142;2023-04-06T14:31:24;15.27;;;7.85;;
67839;SDS011;54636;51.684;5.142;2023-04-06T14:33:49;8.40;;;7.70;;
67839;SDS011;54636;51.684;5.142;2023-04-06T14:36:15;9.98;;;8.18;;
67839;SDS011;54636;51.684;5.142;2023-04-06T14:38:40;7.90;;;7.20;;
67839;SDS011;54636;51.684;5.142;2023-04-06T14:41:08;9.07;;;7.97;;
67839;SDS011;54636;51.684;5.142;2023-04-06T14:43:40;9.25;;;6.60;;